sensor_id;sensor_type;location;lat;lon;timestamp;P1;durP1;ratioP1;P2;durP2;ratioP2
20314;SDS011;10315;50.958;13.080;2023-08-31T00:02:15;1.33;;;1.23;;
20314;SDS011;10315;50.958;13.080;2023-08-31T00:12:16;1.43;;;1.00;;
20314;SDS011;10315;50.958;13.080;2023-08-31T00:22:19;1.40;;;1.23;;
20314;SDS011;10315;50.958;13.080;2023-08-31T00:32:21;1.40;;;1.10;;
20314;SDS011;10315;50.958;13.080;2023-08-31T00:42:25;2.20;;;0.90;;
20314;SDS011;10315;50.958;13.080;2023-08-31T00:52:29;3.10;;;0.80;;
20314;SDS011;10315;50.958;13.080;2023-08-31T01:02:34;1.13;;;1.07;;
20314;SDS011;10315;50.958;13.080;2023-08-31T01:12:44;1.10;;;1.00;;
20314;SDS011;10315;50.958;13.080;2023-08-31T01:22:55;1.70;;;1.30;;
20314;SDS011;10315;50.958;13.080;2023-08-31T01:33:03;1.60;;;1.20;;
20314;SDS011;10315;50.958;13.080;2023-08-31T01:43:05;2.50;;;1.90;;
20314;SDS011;10315;50.958;13.080;2023-08-31T01:53:09;2.43;;;2.00;;
20314;SDS011;10315;50.958;13.080;2023-08-31T02:03:12;3.23;;;1.93;;
20314;SDS011;10315;50.958;13.080;2023-08-31T02:13:15;3.37;;;2.20;;
20314;SDS011;10315;50.958;13.080;2023-08-31T02:23:16;4.03;;;2.70;;
20314;SDS011;10315;50.958;13.080;2023-08-31T02:33:19;3.40;;;2.90;;
20314;SDS011;10315;50.958;13.080;2023-08-31T02:43:21;3.87;;;2.60;;
20314;SDS011;10315;50.958;13.080;2023-08-31T02:53:25;3.17;;;2.40;;
20314;SDS011;10315;50.958;13.080;2023-08-31T03:03:26;3.30;;;2.20;;
20314;SDS011;10315;50.958;13.080;2023-08-31T03:13:30;4.17;;;2.63;;
20314;SDS011;10315;50.958;13.080;2023-08-31T03:23:32;4.20;;;3.13;;
20314;SDS011;10315;50.958;13.080;2023-08-31T03:33:35;3.83;;;3.40;;
20314;SDS011;10315;50.958;13.080;2023-08-31T03:43:36;6.73;;;4.07;;
20314;SDS011;10315;50.958;13.080;2023-08-31T03:53:39;5.50;;;3.70;;
20314;SDS011;10315;50.958;13.080;2023-08-31T04:03:42;7.30;;;3.67;;
20314;SDS011;10315;50.958;13.080;2023-08-31T04:13:45;5.13;;;3.73;;
20314;SDS011;10315;50.958;13.080;2023-08-31T04:23:47;6.43;;;4.13;;
20314;SDS011;10315;50.958;13.080;2023-08-31T04:33:50;8.37;;;4.50;;
20314;SDS011;10315;50.958;13.080;2023-08-31T04:43:55;4.70;;;3.30;;
20314;SDS011;10315;50.958;13.080;2023-08-31T04:53:59;7.13;;;3.43;;
20314;SDS011;10315;50.958;13.080;2023-08-31T05:04:02;4.13;;;2.97;;
20314;SDS011;10315;50.958;13.080;2023-08-31T05:14:05;5.87;;;2.77;;
20314;SDS011;10315;50.958;13.080;2023-08-31T05:24:07;4.10;;;2.50;;
20314;SDS011;10315;50.958;13.080;2023-08-31T05:34:10;6.73;;;3.23;;
20314;SDS011;10315;50.958;13.080;2023-08-31T05:44:12;5.93;;;3.77;;
20314;SDS011;10315;50.958;13.080;2023-08-31T05:54:15;7.17;;;3.77;;
20314;SDS011;10315;50.958;13.080;2023-08-31T06:04:17;3.50;;;3.10;;
20314;SDS011;10315;50.958;13.080;2023-08-31T06:14:20;5.13;;;2.53;;
20314;SDS011;10315;50.958;13.080;2023-08-31T06:24:21;7.17;;;3.53;;
20314;SDS011;10315;50.958;13.080;2023-08-31T06:34:24;10.35;;;3.40;;
20314;SDS011;10315;50.958;13.080;2023-08-31T06:44:26;5.32;;;2.83;;
20314;SDS011;10315;50.958;13.080;2023-08-31T06:54:30;9.43;;;4.03;;
20314;SDS011;10315;50.958;13.080;2023-08-31T07:04:32;5.20;;;2.72;;
20314;SDS011;10315;50.958;13.080;2023-08-31T07:14:35;10.40;;;2.85;;
20314;SDS011;10315;50.958;13.080;2023-08-31T07:24:37;6.00;;;2.42;;
20314;SDS011;10315;50.958;13.080;2023-08-31T07:34:40;5.82;;;2.75;;
20314;SDS011;10315;50.958;13.080;2023-08-31T07:44:41;4.30;;;2.90;;
20314;SDS011;10315;50.958;13.080;2023-08-31T07:54:45;6.47;;;3.05;;
20314;SDS011;10315;50.958;13.080;2023-08-31T08:04:47;6.82;;;2.00;;
20314;SDS011;10315;50.958;13.080;2023-08-31T08:14:50;3.80;;;1.80;;
20314;SDS011;10315;50.958;13.080;2023-08-31T08:24:52;2.55;;;2.25;;
20314;SDS011;10315;50.958;13.080;2023-08-31T08:34:55;2.50;;;1.92;;
20314;SDS011;10315;50.958;13.080;2023-08-31T08:44:57;4.28;;;2.53;;
20314;SDS011;10315;50.958;13.080;2023-08-31T08:55:00;3.42;;;2.03;;
20314;SDS011;10315;50.958;13.080;2023-08-31T09:05:03;5.72;;;2.40;;
20314;SDS011;10315;50.958;13.080;2023-08-31T09:15:06;4.40;;;1.85;;
20314;SDS011;10315;50.958;13.080;2023-08-31T09:25:10;5.82;;;1.55;;
20314;SDS011;10315;50.958;13.080;2023-08-31T09:35:13;7.47;;;1.80;;
20314;SDS011;10315;50.958;13.080;2023-08-31T09:45:16;2.20;;;1.95;;
20314;SDS011;10315;50.958;13.080;2023-08-31T09:55:19;4.65;;;2.00;;
20314;SDS011;10315;50.958;13.080;2023-08-31T10:05:22;3.58;;;1.80;;
20314;SDS011;10315;50.958;13.080;2023-08-31T10:15:28;3.10;;;1.95;;
20314;SDS011;10315;50.958;13.080;2023-08-31T10:36:02;2.95;;;2.20;;
20314;SDS011;10315;50.958;13.080;2023-08-31T10:46:06;0.77;;;0.70;;
20314;SDS011;10315;50.958;13.080;2023-08-31T10:56:18;2.85;;;1.02;;
20314;SDS011;10315;50.958;13.080;2023-08-31T11:06:20;3.60;;;1.08;;
20314;SDS011;10315;50.958;13.080;2023-08-31T11:16:26;2.30;;;1.30;;
20314;SDS011;10315;50.958;13.080;2023-08-31T11:26:31;2.05;;;1.25;;
20314;SDS011;10315;50.958;13.080;2023-08-31T11:36:34;3.92;;;1.17;;
20314;SDS011;10315;50.958;13.080;2023-08-31T11:46:37;2.85;;;1.30;;
20314;SDS011;10315;50.958;13.080;2023-08-31T11:56:42;2.70;;;1.33;;
20314;SDS011;10315;50.958;13.080;2023-08-31T12:06:46;2.25;;;1.55;;
20314;SDS011;10315;50.958;13.080;2023-08-31T12:16:50;2.35;;;1.90;;
20314;SDS011;10315;50.958;13.080;2023-08-31T12:26:52;2.13;;;1.67;;
20314;SDS011;10315;50.958;13.080;2023-08-31T12:36:56;5.50;;;1.15;;
20314;SDS011;10315;50.958;13.080;2023-08-31T12:47:01;2.97;;;1.98;;
20314;SDS011;10315;50.958;13.080;2023-08-31T12:57:06;7.15;;;2.47;;
20314;SDS011;10315;50.958;13.080;2023-08-31T13:07:07;1.52;;;1.20;;
20314;SDS011;10315;50.958;13.080;2023-08-31T13:17:10;2.00;;;1.20;;
20314;SDS011;10315;50.958;13.080;2023-08-31T13:27:12;3.45;;;1.05;;
20314;SDS011;10315;50.958;13.080;2023-08-31T13:37:15;1.55;;;1.30;;
20314;SDS011;10315;50.958;13.080;2023-08-31T13:47:17;1.27;;;1.10;;
20314;SDS011;10315;50.958;13.080;2023-08-31T13:57:20;1.15;;;1.05;;
20314;SDS011;10315;50.958;13.080;2023-08-31T14:07:22;2.30;;;1.10;;
20314;SDS011;10315;50.958;13.080;2023-08-31T14:17:25;1.60;;;1.30;;
20314;SDS011;10315;50.958;13.080;2023-08-31T14:27:27;2.85;;;1.23;;
20314;SDS011;10315;50.958;13.080;2023-08-31T14:37:31;5.00;;;1.20;;
20314;SDS011;10315;50.958;13.080;2023-08-31T14:47:33;1.45;;;0.90;;
20314;SDS011;10315;50.958;13.080;2023-08-31T14:57:36;3.92;;;1.13;;
20314;SDS011;10315;50.958;13.080;2023-08-31T15:07:42;1.92;;;0.80;;
20314;SDS011;10315;50.958;13.080;2023-08-31T15:17:45;1.40;;;0.90;;
20314;SDS011;10315;50.958;13.080;2023-08-31T15:27:46;1.50;;;1.17;;
20314;SDS011;10315;50.958;13.080;2023-08-31T15:37:49;3.08;;;1.38;;
20314;SDS011;10315;50.958;13.080;2023-08-31T15:47:52;2.60;;;1.40;;
20314;SDS011;10315;50.958;13.080;2023-08-31T15:57:55;3.53;;;1.00;;
20314;SDS011;10315;50.958;13.080;2023-08-31T16:07:57;5.65;;;1.20;;
20314;SDS011;10315;50.958;13.080;2023-08-31T16:18:01;3.95;;;1.45;;
20314;SDS011;10315;50.958;13.080;2023-08-31T16:28:03;0.98;;;0.85;;
20314;SDS011;10315;50.958;13.080;2023-08-31T16:38:06;2.75;;;0.95;;
20314;SDS011;10315;50.958;13.080;2023-08-31T16:48:08;0.98;;;0.73;;
20314;SDS011;10315;50.958;13.080;2023-08-31T16:58:11;0.80;;;0.80;;
20314;SDS011;10315;50.958;13.080;2023-08-31T17:08:13;6.00;;;1.20;;
20314;SDS011;10315;50.958;13.080;2023-08-31T17:18:16;1.77;;;1.45;;
20314;SDS011;10315;50.958;13.080;2023-08-31T17:28:17;1.38;;;1.10;;
20314;SDS011;10315;50.958;13.080;2023-08-31T17:38:20;3.13;;;0.82;;
20314;SDS011;10315;50.958;13.080;2023-08-31T17:48:22;2.80;;;1.27;;
20314;SDS011;10315;50.958;13.080;2023-08-31T17:58:25;4.35;;;1.30;;
20314;SDS011;10315;50.958;13.080;2023-08-31T18:08:27;3.65;;;1.80;;
20314;SDS011;10315;50.958;13.080;2023-08-31T18:18:32;3.72;;;1.58;;
20314;SDS011;10315;50.958;13.080;2023-08-31T18:28:34;3.45;;;1.40;;
20314;SDS011;10315;50.958;13.080;2023-08-31T18:38:37;3.80;;;1.88;;
20314;SDS011;10315;50.958;13.080;2023-08-31T18:48:39;4.43;;;2.00;;
20314;SDS011;10315;50.958;13.080;2023-08-31T18:58:42;4.20;;;2.10;;
20314;SDS011;10315;50.958;13.080;2023-08-31T19:08:44;3.80;;;1.90;;
20314;SDS011;10315;50.958;13.080;2023-08-31T19:18:49;5.13;;;1.67;;
20314;SDS011;10315;50.958;13.080;2023-08-31T19:28:50;2.03;;;1.90;;
20314;SDS011;10315;50.958;13.080;2023-08-31T19:38:54;2.60;;;1.93;;
20314;SDS011;10315;50.958;13.080;2023-08-31T19:48:56;3.83;;;1.87;;
20314;SDS011;10315;50.958;13.080;2023-08-31T19:58:59;3.00;;;1.90;;
20314;SDS011;10315;50.958;13.080;2023-08-31T20:09:02;6.60;;;2.00;;
20314;SDS011;10315;50.958;13.080;2023-08-31T20:19:05;4.50;;;2.27;;
20314;SDS011;10315;50.958;13.080;2023-08-31T20:29:07;3.93;;;1.93;;
20314;SDS011;10315;50.958;13.080;2023-08-31T20:39:10;3.93;;;1.90;;
20314;SDS011;10315;50.958;13.080;2023-08-31T20:49:14;2.37;;;1.30;;
20314;SDS011;10315;50.958;13.080;2023-08-31T20:59:17;7.10;;;2.00;;
20314;SDS011;10315;50.958;13.080;2023-08-31T21:09:19;2.27;;;1.90;;
20314;SDS011;10315;50.958;13.080;2023-08-31T21:19:22;2.93;;;1.90;;
20314;SDS011;10315;50.958;13.080;2023-08-31T21:29:24;2.00;;;1.83;;
20314;SDS011;10315;50.958;13.080;2023-08-31T21:39:27;3.20;;;2.07;;
20314;SDS011;10315;50.958;13.080;2023-08-31T21:49:28;1.97;;;1.87;;
20314;SDS011;10315;50.958;13.080;2023-08-31T21:59:31;2.57;;;2.10;;
20314;SDS011;10315;50.958;13.080;2023-08-31T22:09:33;4.87;;;2.40;;
20314;SDS011;10315;50.958;13.080;2023-08-31T22:19:37;2.87;;;2.10;;
20314;SDS011;10315;50.958;13.080;2023-08-31T22:29:39;2.87;;;2.60;;
20314;SDS011;10315;50.958;13.080;2023-08-31T22:39:42;6.73;;;3.10;;
20314;SDS011;10315;50.958;13.080;2023-08-31T22:49:44;4.97;;;2.60;;
20314;SDS011;10315;50.958;13.080;2023-08-31T22:59:47;5.83;;;3.10;;
20314;SDS011;10315;50.958;13.080;2023-08-31T23:09:49;5.23;;;3.37;;
20314;SDS011;10315;50.958;13.080;2023-08-31T23:19:53;6.57;;;3.63;;
20314;SDS011;10315;50.958;13.080;2023-08-31T23:29:54;6.73;;;3.30;;
20314;SDS011;10315;50.958;13.080;2023-08-31T23:39:58;5.30;;;3.20;;
20314;SDS011;10315;50.958;13.080;2023-08-31T23:49:59;4.33;;;3.80;;
